Time;durP1;ratioP1;P1;durP2;ratioP2;P2;SDS_P1;SDS_P2;PMS_P1;PMS_P2;Temp;Humidity;BMP_temperature;BMP_pressure;BME280_temperature;BME280_humidity;BME280_pressure;Samples;Min_cycle;Max_cycle;Signal;HPM_P1;HPM_P2
2022/03/21 00:00:34;;;;;;;;;;;;;;;0.87;38.99;96885.63;5073223;28;993;-49
2022/03/21 00:03:01;;;;;;;;;;;;;;;0.91;39.19;96872.28;5073111;28;905;-50
2022/03/21 00:05:29;;;;;;;;;;;;;;;0.90;39.16;96875.81;5073146;28;1037;-50
2022/03/21 00:07:56;;;;;;;;;;;;;;;1.01;38.97;96879.84;5073004;28;960;-50
2022/03/21 00:10:23;;;;;;;;;;;;;;;1.07;39.05;96877.78;5071736;28;1906;-50
2022/03/21 00:12:49;;;;;;;;;;;;;;;1.02;39.31;96885.00;5072733;28;1111;-50
2022/03/21 00:15:15;;;;;;;;;;;;;;;1.03;39.39;96880.63;5073292;28;960;-50
2022/03/21 00:17:41;;;;;;;;;;;;;;;1.12;38.73;96881.13;5072864;28;1012;-49
2022/03/21 00:20:09;;;;;;;;;;;;;;;1.21;38.20;96876.38;5073065;28;1048;-49
2022/03/21 00:22:35;;;;;;;;;;;;;;;1.14;38.92;96883.69;5072787;28;981;-49
2022/03/21 00:25:02;;;;;;;;;;;;;;;1.23;38.70;96883.28;5072824;28;1051;-49
2022/03/21 00:27:28;;;;;;;;;;;;;;;1.14;39.00;96870.50;5073488;28;1095;-50
2022/03/21 00:29:54;;;;;;;;;;;;;;;0.98;38.94;96868.47;5076933;28;1914;-49
2022/03/21 00:32:20;;;;;;;;;;;;;;;0.98;39.08;96863.19;5076840;28;949;-50
2022/03/21 00:34:46;;;;;;;;;;;;;;;1.02;38.52;96868.34;5076706;28;1013;-50
2022/03/21 00:37:13;;;;;;;;;;;;;;;1.05;38.43;96868.25;5076601;28;960;-49
2022/03/21 00:39:40;;;;;;;;;;;;;;;1.11;38.39;96860.94;5076693;28;1055;-50
2022/03/21 00:42:06;;;;;;;;;;;;;;;1.12;38.62;96869.69;5076086;28;1083;-50
2022/03/21 00:44:33;;;;;;;;;;;;;;;0.97;39.27;96868.56;5077027;28;973;-50
2022/03/21 00:46:59;;;;;;;;;;;;;;;0.91;39.41;96864.38;5076246;28;1036;-49
2022/03/21 00:49:25;;;;;;;;;;;;;;;0.98;39.04;96857.09;5076454;28;1913;-49
2022/03/21 00:51:51;;;;;;;;;;;;;;;0.93;38.95;96856.41;5076055;28;1205;-50
2022/03/21 00:54:17;;;;;;;;;;;;;;;0.99;38.93;96856.19;5076379;28;1028;-50
2022/03/21 00:56:43;;;;;;;;;;;;;;;0.91;39.39;96847.69;5076445;28;969;-50
2022/03/21 00:59:09;;;;;;;;;;;;;;;0.88;39.72;96850.47;5076272;28;1087;-50
2022/03/21 01:01:35;;;;;;;;;;;;;;;0.88;39.52;96845.19;5076278;28;1007;-51
2022/03/21 01:04:01;;;;;;;;;;;;;;;0.73;40.32;96850.13;5076300;28;976;-51
2022/03/21 01:06:27;;;;;;;;;;;;;;;0.72;40.30;96852.81;5076061;28;984;-50
2022/03/21 01:08:53;;;;;;;;;;;;;;;0.64;41.42;96836.47;5076023;28;1910;-51
2022/03/21 01:11:19;;;;;;;;;;;;;;;0.62;40.25;96847.06;5076115;28;1103;-51
2022/03/21 01:13:45;;;;;;;;;;;;;;;0.73;40.07;96836.13;5075837;28;988;-51
2022/03/21 01:16:11;;;;;;;;;;;;;;;0.68;40.53;96838.06;5076265;28;953;-51
2022/03/21 01:18:37;;;;;;;;;;;;;;;0.54;40.79;96833.34;5075823;28;900;-51
2022/03/21 01:21:03;;;;;;;;;;;;;;;0.58;40.99;96827.03;5075943;28;965;-50
2022/03/21 01:23:29;;;;;;;;;;;;;;;0.58;40.70;96821.78;5075683;28;1055;-50
2022/03/21 01:25:56;;;;;;;;;;;;;;;0.49;40.95;96822.97;5075708;28;1044;-50
2022/03/21 01:28:22;;;;;;;;;;;;;;;0.60;41.06;96825.19;5075584;28;1913;-50
2022/03/21 01:30:48;;;;;;;;;;;;;;;0.68;40.44;96819.63;5075697;28;1040;-50
2022/03/21 01:33:14;;;;;;;;;;;;;;;0.55;41.06;96817.50;5075703;28;972;-51
2022/03/21 01:35:40;;;;;;;;;;;;;;;0.48;41.35;96810.75;5075717;28;1024;-51
2022/03/21 01:38:06;;;;;;;;;;;;;;;0.45;41.12;96804.75;5075234;28;1091;-50
2022/03/21 01:40:32;;;;;;;;;;;;;;;0.43;41.05;96804.78;5074806;28;1020;-50
2022/03/21 01:42:58;;;;;;;;;;;;;;;0.34;42.01;96811.28;5074947;28;1100;-50
2022/03/21 01:45:26;;;;;;;;;;;;;;;0.28;41.67;96805.38;5075485;28;1036;-50
2022/03/21 01:47:52;;;;;;;;;;;;;;;0.42;41.85;96804.84;5075340;28;1027;-50
2022/03/21 01:50:19;;;;;;;;;;;;;;;0.45;41.89;96812.63;5075435;28;1906;-51
2022/03/21 01:52:46;;;;;;;;;;;;;;;0.34;41.72;96799.88;5074916;28;1233;-51
2022/03/21 01:57:58;;;;;;;;;;;;;;;0.19;42.61;96796.94;5075207;28;1035;-51
2022/03/21 02:00:24;;;;;;;;;;;;;;;0.26;42.11;96799.31;5075321;28;1305;-50
2022/03/21 02:02:50;;;;;;;;;;;;;;;0.41;41.40;96790.84;5074984;28;984;-51
2022/03/21 02:05:16;;;;;;;;;;;;;;;0.50;41.78;96789.63;5075144;28;1034;-51
2022/03/21 02:07:43;;;;;;;;;;;;;;;0.54;41.14;96792.06;5074784;28;999;-51
2022/03/21 02:10:10;;;;;;;;;;;;;;;0.65;41.43;96793.44;5075140;28;1910;-50
2022/03/21 02:12:36;;;;;;;;;;;;;;;0.68;40.75;96786.25;5074625;28;1009;-51
2022/03/21 02:15:03;;;;;;;;;;;;;;;0.56;40.32;96790.25;5074944;28;1035;-50
2022/03/21 02:17:30;;;;;;;;;;;;;;;0.74;40.23;96793.06;5074736;28;1094;-50
2022/03/21 02:19:57;;;;;;;;;;;;;;;0.69;40.14;96779.25;5074705;28;973;-50
2022/03/21 02:22:43;;;;;;;;;;;;;;;0.55;40.70;96778.00;5074698;28;1047;-50
2022/03/21 02:25:44;;;;;;;;;;;;;;;0.53;40.74;96779.84;5053625;28;1170;-51
2022/03/21 02:28:11;;;;;;;;;;;;;;;0.62;40.54;96780.41;5052280;28;1906;-51
2022/03/21 02:30:38;;;;;;;;;;;;;;;0.70;40.14;96775.69;5074535;28;981;-50
2022/03/21 02:33:05;;;;;;;;;;;;;;;0.82;39.99;96788.38;5074512;28;957;-50
2022/03/21 02:35:31;;;;;;;;;;;;;;;0.86;40.18;96783.84;5074417;28;1016;-51
2022/03/21 02:37:57;;;;;;;;;;;;;;;0.82;39.72;96782.25;5074330;28;991;-51
2022/03/21 02:40:24;;;;;;;;;;;;;;;0.86;39.78;96787.31;5074503;28;1039;-50
2022/03/21 02:42:50;;;;;;;;;;;;;;;1.02;39.54;96789.31;5074053;28;1093;-51
2022/03/21 02:45:16;;;;;;;;;;;;;;;0.94;39.32;96785.22;5074188;28;1036;-50
2022/03/21 02:47:42;;;;;;;;;;;;;;;0.91;39.92;96789.75;5074483;28;983;-51
2022/03/21 02:50:12;;;;;;;;;;;;;;;0.76;39.87;96788.63;5074120;28;1910;-51
2022/03/21 02:52:38;;;;;;;;;;;;;;;0.73;40.22;96786.09;5074213;28;1236;-50
2022/03/21 02:55:05;;;;;;;;;;;;;;;0.75;40.14;96789.53;5073969;28;1015;-51
2022/03/21 02:57:32;;;;;;;;;;;;;;;0.77;39.94;96791.16;5074020;28;1020;-51
2022/03/21 02:59:59;;;;;;;;;;;;;;;0.74;40.15;96791.31;5073883;28;1063;-50
2022/03/21 03:02:25;;;;;;;;;;;;;;;0.74;40.13;96793.94;5074228;28;988;-50
2022/03/21 03:04:51;;;;;;;;;;;;;;;0.76;40.23;96793.88;5073727;28;933;-50
2022/03/21 03:07:17;;;;;;;;;;;;;;;0.74;40.65;96796.56;5073940;28;1015;-50
2022/03/21 03:09:43;;;;;;;;;;;;;;;0.81;40.17;96791.91;5074138;28;1910;-50
2022/03/21 03:12:09;;;;;;;;;;;;;;;0.76;40.25;96793.88;5072395;28;1091;-50
2022/03/21 03:14:35;;;;;;;;;;;;;;;0.62;40.05;96793.56;5073568;28;1016;-50
2022/03/21 03:17:02;;;;;;;;;;;;;;;0.61;40.48;96789.19;5073908;28;976;-50
2022/03/21 03:19:28;;;;;;;;;;;;;;;0.68;40.62;96795.94;5073713;28;992;-49
2022/03/21 03:21:55;;;;;;;;;;;;;;;0.72;40.57;96792.25;5073766;28;952;-49
2022/03/21 03:24:23;;;;;;;;;;;;;;;0.69;40.44;96798.53;5073443;28;1114;-49
2022/03/21 03:26:49;;;;;;;;;;;;;;;0.79;39.79;96799.00;5073451;28;1027;-49
2022/03/21 03:29:15;;;;;;;;;;;;;;;0.88;39.28;96792.53;5073589;28;1909;-50
2022/03/21 03:31:42;;;;;;;;;;;;;;;0.65;40.92;96804.84;5073807;28;1027;-51
2022/03/21 03:34:08;;;;;;;;;;;;;;;0.53;41.20;96803.53;5073233;28;1009;-51
2022/03/21 03:36:34;;;;;;;;;;;;;;;0.52;41.65;96801.81;5073523;28;1019;-50
2022/03/21 03:39:00;;;;;;;;;;;;;;;0.55;41.37;96798.19;5073160;28;1067;-51
2022/03/21 03:41:27;;;;;;;;;;;;;;;0.52;41.51;96793.06;5073441;28;1118;-50
2022/03/21 03:43:53;;;;;;;;;;;;;;;0.45;41.34;96796.84;5072819;28;1085;-50
2022/03/21 03:46:19;;;;;;;;;;;;;;;-0.12;44.25;96798.97;5073345;28;1083;-50
2022/03/21 03:48:46;;;;;;;;;;;;;;;-0.16;44.09;96794.72;5073395;28;1913;-50
2022/03/21 03:51:13;;;;;;;;;;;;;;;-0.28;44.95;96796.88;5073444;28;1240;-49
2022/03/21 03:53:40;;;;;;;;;;;;;;;-0.43;45.52;96795.66;5073391;28;1032;-50
2022/03/21 03:56:06;;;;;;;;;;;;;;;-0.70;46.90;96796.59;5073038;28;973;-50
2022/03/21 03:58:36;;;;;;;;;;;;;;;-1.07;48.04;96797.84;5073214;28;1000;-51
2022/03/21 04:01:04;;;;;;;;;;;;;;;-0.92;47.15;96792.06;5072942;28;1025;-51
2022/03/21 04:03:46;;;;;;;;;;;;;;;-1.02;47.33;96796.78;5071760;28;987;-50
2022/03/21 04:06:14;;;;;;;;;;;;;;;-0.80;45.85;96781.19;5072934;28;1095;-50
2022/03/21 04:08:40;;;;;;;;;;;;;;;-0.99;47.82;96798.44;5073071;28;1902;-50
2022/03/21 04:11:06;;;;;;;;;;;;;;;-1.38;49.55;96788.31;5073092;28;952;-50
2022/03/21 04:13:32;;;;;;;;;;;;;;;-1.35;48.65;96789.97;5073102;28;1007;-50
2022/03/21 04:15:58;;;;;;;;;;;;;;;-1.22;47.60;96799.19;5071683;28;1083;-50
2022/03/21 04:18:25;;;;;;;;;;;;;;;-0.89;46.81;96791.09;5073031;28;1040;-50
2022/03/21 04:20:52;;;;;;;;;;;;;;;-1.31;48.69;96794.22;5072681;28;1011;-49
2022/03/21 04:23:18;;;;;;;;;;;;;;;-1.23;47.33;96776.47;5072994;28;993;-50
2022/03/21 04:25:45;;;;;;;;;;;;;;;-0.75;45.86;96782.78;5072765;28;1016;-50
2022/03/21 04:28:11;;;;;;;;;;;;;;;-0.64;45.72;96778.00;5073020;28;1906;-50
2022/03/21 04:30:38;;;;;;;;;;;;;;;-0.54;45.20;96787.28;5072883;28;961;-50
2022/03/21 04:33:04;;;;;;;;;;;;;;;-0.33;44.80;96785.66;5072949;28;964;-50
2022/03/21 04:35:30;;;;;;;;;;;;;;;-0.21;44.10;96779.09;5072566;28;1084;-50
2022/03/21 04:37:57;;;;;;;;;;;;;;;-0.08;43.73;96777.75;5072725;28;961;-50
2022/03/21 04:40:23;;;;;;;;;;;;;;;0.08;43.16;96775.44;5072640;28;1028;-50
2022/03/21 04:42:49;;;;;;;;;;;;;;;0.25;42.32;96776.53;5072525;28;1239;-50
2022/03/21 04:45:19;;;;;;;;;;;;;;;0.10;44.15;96772.75;5072827;28;1005;-49
2022/03/21 04:47:45;;;;;;;;;;;;;;;0.10;43.75;96772.75;5072617;28;1108;-49
2022/03/21 04:50:12;;;;;;;;;;;;;;;0.07;44.11;96778.94;5072433;28;1992;-49
2022/03/21 04:52:38;;;;;;;;;;;;;;;0.21;42.86;96778.47;5072666;28;1221;-50
2022/03/21 04:55:07;;;;;;;;;;;;;;;0.33;42.68;96770.06;5072703;28;1063;-51
2022/03/21 04:57:34;;;;;;;;;;;;;;;0.30;42.31;96770.19;5072659;28;999;-50
2022/03/21 05:00:00;;;;;;;;;;;;;;;0.60;41.65;96769.91;5072668;28;995;-50
2022/03/21 05:02:26;;;;;;;;;;;;;;;0.83;40.72;96773.41;5072721;28;1019;-50
2022/03/21 05:04:52;;;;;;;;;;;;;;;0.96;40.78;96772.00;5072608;28;1019;-50
2022/03/21 05:07:19;;;;;;;;;;;;;;;1.14;40.23;96770.41;5072425;28;1074;-50
2022/03/21 05:09:45;;;;;;;;;;;;;;;1.25;40.78;96772.56;5072408;28;1993;-50
2022/03/21 05:12:12;;;;;;;;;;;;;;;1.30;40.39;96782.00;5072192;28;1031;-50
2022/03/21 05:14:39;;;;;;;;;;;;;;;1.38;40.16;96778.19;5073780;28;1015;-50
2022/03/21 05:17:05;;;;;;;;;;;;;;;1.40;39.85;96776.34;5075806;28;1004;-50
2022/03/21 05:19:37;;;;;;;;;;;;;;;1.42;40.28;96777.97;5075914;28;1016;-50
2022/03/21 05:22:04;;;;;;;;;;;;;;;1.48;39.92;96779.50;5075675;28;1007;-50
2022/03/21 05:32:44;;;;;;;;;;;;;;;2.21;38.49;96788.56;5075877;28;1004;-50
2022/03/21 05:37:54;;;;;;;;;;;;;;;2.64;38.37;96794.53;5075669;28;957;-49
2022/03/21 05:40:34;;;;;;;;;;;;;;;2.69;38.00;96795.16;5075761;28;1059;-50
2022/03/21 05:43:01;;;;;;;;;;;;;;;2.80;37.46;96788.50;5075184;28;1120;-50
2022/03/21 05:45:28;;;;;;;;;;;;;;;2.86;37.50;96796.13;5075695;28;949;-50
2022/03/21 05:50:39;;;;;;;;;;;;;;;3.71;35.74;96795.44;5075311;28;1236;-50
2022/03/21 05:53:08;;;;;;;;;;;;;;;3.91;35.25;96789.13;5075260;28;979;-50
2022/03/21 05:55:34;;;;;;;;;;;;;;;3.92;35.88;96794.31;5075422;28;961;-50
2022/03/21 05:58:01;;;;;;;;;;;;;;;3.94;35.47;96785.47;5075060;28;1288;-50
2022/03/21 06:00:27;;;;;;;;;;;;;;;4.41;34.39;96796.16;5075390;28;964;-50
2022/03/21 06:02:53;;;;;;;;;;;;;;;4.64;33.86;96799.34;5075288;28;1012;-49
2022/03/21 06:05:20;;;;;;;;;;;;;;;5.00;33.49;96803.56;5075457;28;1096;-49
2022/03/21 06:07:47;;;;;;;;;;;;;;;5.27;32.99;96791.38;5074763;28;1095;-50
2022/03/21 06:10:14;;;;;;;;;;;;;;;5.45;33.59;96799.22;5074966;28;1902;-50
2022/03/21 06:12:40;;;;;;;;;;;;;;;5.82;32.58;96799.69;5074825;28;1067;-50
2022/03/21 06:15:06;;;;;;;;;;;;;;;6.19;32.01;96797.50;5074892;28;1092;-50
2022/03/21 06:17:39;;;;;;;;;;;;;;;6.58;30.90;96796.84;5074720;28;1009;-49
2022/03/21 06:20:07;;;;;;;;;;;;;;;7.99;29.66;96799.19;5074709;28;1049;-50
2022/03/21 06:22:33;;;;;;;;;;;;;;;10.30;26.91;96801.09;5074617;28;1009;-51
2022/03/21 06:24:59;;;;;;;;;;;;;;;12.67;23.55;96798.66;5074686;28;1046;-48
2022/03/21 06:27:25;;;;;;;;;;;;;;;13.98;21.27;96796.84;5074616;28;1982;-48
2022/03/21 06:29:51;;;;;;;;;;;;;;;15.46;20.77;96807.03;5074604;28;2000;-48
2022/03/21 06:32:17;;;;;;;;;;;;;;;16.70;18.55;96804.47;5074406;28;1000;-48
2022/03/21 06:34:44;;;;;;;;;;;;;;;17.84;18.00;96806.88;5074524;28;986;-48
2022/03/21 06:37:10;;;;;;;;;;;;;;;18.37;17.56;96807.44;5074300;28;969;-48
2022/03/21 06:39:36;;;;;;;;;;;;;;;18.28;16.91;96809.28;5074419;28;1020;-49
2022/03/21 06:42:02;;;;;;;;;;;;;;;18.01;17.58;96817.72;5073816;28;1077;-49
2022/03/21 06:44:28;;;;;;;;;;;;;;;15.52;19.54;96804.59;5074735;28;1049;-48
2022/03/21 06:46:56;;;;;;;;;;;;;;;15.48;19.70;96800.50;5074197;28;1037;-48
2022/03/21 06:49:29;;;;;;;;;;;;;;;15.64;19.30;96809.78;5074111;28;1910;-48
2022/03/21 06:51:56;;;;;;;;;;;;;;;15.30;19.64;96808.53;5073826;28;1224;-48
2022/03/21 06:54:22;;;;;;;;;;;;;;;15.34;19.43;96803.72;5074631;28;1055;-48
2022/03/21 06:56:48;;;;;;;;;;;;;;;16.05;20.06;96802.97;5073814;28;1044;-48
2022/03/21 06:59:14;;;;;;;;;;;;;;;16.79;18.91;96803.53;5074228;28;960;-49
2022/03/21 07:01:40;;;;;;;;;;;;;;;16.96;17.96;96801.81;5074018;28;1032;-49
2022/03/21 07:04:06;;;;;;;;;;;;;;;17.60;17.75;96804.06;5073707;28;1055;-49
2022/03/21 07:06:32;;;;;;;;;;;;;;;17.15;17.97;96811.53;5073908;28;1019;-49
2022/03/21 07:08:58;;;;;;;;;;;;;;;18.98;16.80;96820.59;5073564;28;1990;-49
2022/03/21 07:11:25;;;;;;;;;;;;;;;20.73;15.56;96805.69;5073855;28;1024;-50
2022/03/21 07:13:51;;;;;;;;;;;;;;;21.21;14.24;96808.09;5073508;28;996;-50
2022/03/21 07:16:17;;;;;;;;;;;;;;;22.25;13.94;96807.94;5073878;28;1019;-50
2022/03/21 07:18:43;;;;;;;;;;;;;;;23.09;13.56;96809.94;5073494;28;1063;-50
2022/03/21 07:21:10;;;;;;;;;;;;;;;24.07;12.89;96803.47;5073684;28;1031;-49
2022/03/21 07:23:36;;;;;;;;;;;;;;;24.78;12.41;96804.88;5073459;28;1247;-49
2022/03/21 07:26:02;;;;;;;;;;;;;;;24.64;12.55;96807.59;5073507;28;1024;-50
2022/03/21 07:28:28;;;;;;;;;;;;;;;25.22;12.32;96792.41;5073537;28;1999;-49
2022/03/21 07:30:55;;;;;;;;;;;;;;;25.33;12.05;96809.03;5073630;28;1025;-48
2022/03/21 07:33:21;;;;;;;;;;;;;;;25.84;11.99;96810.16;5073173;28;1032;-48
2022/03/21 07:35:47;;;;;;;;;;;;;;;25.28;12.42;96799.78;5073307;28;999;-49
2022/03/21 07:38:13;;;;;;;;;;;;;;;25.54;11.67;96801.63;5072661;28;1028;-50
2022/03/21 07:40:39;;;;;;;;;;;;;;;25.77;12.04;96795.63;5073883;28;976;-49
2022/03/21 07:43:05;;;;;;;;;;;;;;;25.89;11.73;96793.88;5072788;28;1231;-50
2022/03/21 07:48:17;;;;;;;;;;;;;;;26.87;11.10;96778.09;5073100;28;1060;-50
2022/03/21 07:50:43;;;;;;;;;;;;;;;26.85;11.29;96782.97;5073377;28;1900;-50
2022/03/21 07:53:09;;;;;;;;;;;;;;;27.20;11.36;96788.75;5073473;28;1043;-50
2022/03/21 07:55:36;;;;;;;;;;;;;;;27.50;10.83;96779.81;5073434;28;1004;-50
2022/03/21 07:58:02;;;;;;;;;;;;;;;27.66;11.28;96772.88;5072996;28;1028;-50
2022/03/21 08:00:30;;;;;;;;;;;;;;;28.61;10.21;96774.97;5073243;28;976;-50
2022/03/21 08:02:58;;;;;;;;;;;;;;;28.54;10.39;96768.72;5072756;28;1025;-50
2022/03/21 08:05:24;;;;;;;;;;;;;;;28.91;9.93;96767.69;5073402;28;958;-51
2022/03/21 08:07:51;;;;;;;;;;;;;;;28.45;10.17;96767.34;5073062;28;1082;-50
2022/03/21 08:10:19;;;;;;;;;;;;;;;27.62;10.95;96763.38;5073154;28;1985;-50
2022/03/21 08:12:46;;;;;;;;;;;;;;;27.16;10.69;96767.47;5072910;28;1032;-50
2022/03/21 08:15:13;;;;;;;;;;;;;;;26.42;10.64;96757.09;5072936;28;1013;-50
2022/03/21 08:18:03;;;;;;;;;;;;;;;25.33;11.17;96754.28;5072892;28;1102;-50
2022/03/21 08:20:35;;;;;;;;;;;;;;;23.77;11.93;96746.41;5073225;28;1020;-50
2022/03/21 08:23:03;;;;;;;;;;;;;;;22.54;13.22;96746.16;5072874;28;1052;-50
2022/03/21 08:25:30;;;;;;;;;;;;;;;19.63;15.16;96738.94;5072926;28;1083;-49
2022/03/21 08:27:56;;;;;;;;;;;;;;;18.04;16.01;96739.75;5072924;28;1120;-49
2022/03/21 08:30:22;;;;;;;;;;;;;;;17.51;15.78;96730.19;5072919;28;1898;-48
2022/03/21 08:32:48;;;;;;;;;;;;;;;16.78;16.73;96735.13;5072954;28;984;-48
2022/03/21 08:35:18;;;;;;;;;;;;;;;16.28;17.61;96727.75;5072761;28;1186;-48
2022/03/21 08:37:44;;;;;;;;;;;;;;;16.11;17.67;96724.09;5073039;28;1025;-48
2022/03/21 08:40:11;;;;;;;;;;;;;;;16.36;17.84;96719.72;5072700;28;1076;-48
2022/03/21 08:42:37;;;;;;;;;;;;;;;16.76;17.81;96718.25;5072508;28;1144;-48
2022/03/21 08:45:04;;;;;;;;;;;;;;;15.52;17.89;96710.25;5072817;28;960;-48
2022/03/21 08:47:30;;;;;;;;;;;;;;;14.61;19.55;96712.91;5072921;28;999;-48
2022/03/21 08:49:56;;;;;;;;;;;;;;;15.23;19.38;96708.63;5075593;28;1999;-48
2022/03/21 08:52:22;;;;;;;;;;;;;;;16.21;17.83;96710.50;5076564;28;1233;-49
2022/03/21 08:54:49;;;;;;;;;;;;;;;16.00;17.87;96700.06;5076326;28;960;-48
2022/03/21 08:57:15;;;;;;;;;;;;;;;16.08;19.18;96693.88;5076314;28;1091;-48
2022/03/21 08:59:41;;;;;;;;;;;;;;;16.65;19.13;96699.63;5076228;28;1012;-49
2022/03/21 09:02:08;;;;;;;;;;;;;;;16.90;19.16;96700.63;5075078;28;1012;-49
2022/03/21 09:04:35;;;;;;;;;;;;;;;16.83;18.24;96694.19;5076091;28;1088;-49
2022/03/21 09:07:02;;;;;;;;;;;;;;;16.39;19.04;96686.16;5076176;28;1843;-49
2022/03/21 09:09:28;;;;;;;;;;;;;;;15.87;18.68;96686.13;5076466;28;1992;-50
2022/03/21 09:11:54;;;;;;;;;;;;;;;15.15;19.89;96680.72;5075798;28;1082;-49
2022/03/21 09:14:20;;;;;;;;;;;;;;;15.52;20.76;96677.91;5076189;28;1008;-49
2022/03/21 09:16:49;;;;;;;;;;;;;;;14.81;20.29;96682.19;5076077;28;1015;-49
2022/03/21 09:19:16;;;;;;;;;;;;;;;14.56;20.51;96670.25;5075995;28;1012;-49
2022/03/21 09:21:43;;;;;;;;;;;;;;;14.58;22.11;96662.06;5076124;28;1007;-49
2022/03/21 09:24:10;;;;;;;;;;;;;;;14.51;21.42;96669.84;5075721;28;1024;-49
2022/03/21 09:26:37;;;;;;;;;;;;;;;14.34;21.18;96665.25;5075842;28;1000;-49
2022/03/21 09:29:04;;;;;;;;;;;;;;;14.41;20.49;96664.50;5075784;28;1918;-50
2022/03/21 09:31:31;;;;;;;;;;;;;;;13.47;20.92;96654.56;5075677;28;1086;-49
2022/03/21 09:33:57;;;;;;;;;;;;;;;13.21;21.50;96648.84;5075939;28;1012;-49
2022/03/21 09:36:23;;;;;;;;;;;;;;;12.78;20.62;96655.44;5075537;28;1032;-49
2022/03/21 09:38:49;;;;;;;;;;;;;;;13.06;22.09;96661.00;5075702;28;1019;-49
2022/03/21 09:41:22;;;;;;;;;;;;;;;12.99;20.87;96666.06;5075424;28;1079;-49
2022/03/21 09:49:57;;;;;;;;;;;;;;;13.35;21.36;96658.34;5075389;28;1910;-48
2022/03/21 09:52:23;;;;;;;;;;;;;;;13.53;21.63;96653.13;5075588;28;1114;-49
2022/03/21 09:54:50;;;;;;;;;;;;;;;13.48;21.06;96660.75;5075270;28;1035;-49
2022/03/21 09:57:17;;;;;;;;;;;;;;;13.56;21.21;96668.09;5075501;28;965;-49
2022/03/21 09:59:43;;;;;;;;;;;;;;;13.50;22.25;96655.25;5074983;28;969;-49
2022/03/21 10:02:13;;;;;;;;;;;;;;;12.98;21.16;96655.50;5074584;28;1076;-49
2022/03/21 10:04:39;;;;;;;;;;;;;;;12.98;21.43;96652.81;5075078;28;1083;-48
2022/03/21 10:07:05;;;;;;;;;;;;;;;12.58;22.39;96659.09;5075236;28;1049;-48
2022/03/21 10:09:31;;;;;;;;;;;;;;;12.70;22.45;96647.25;5075170;28;1983;-48
2022/03/21 10:11:58;;;;;;;;;;;;;;;13.39;21.90;96654.41;5074699;28;1029;-48
2022/03/21 10:14:33;;;;;;;;;;;;;;;13.42;21.58;96658.66;5075104;28;957;-48
2022/03/21 10:17:01;;;;;;;;;;;;;;;13.44;21.39;96640.53;5074658;28;997;-48
2022/03/21 10:19:39;;;;;;;;;;;;;;;13.42;22.15;96646.06;5074880;28;1017;-49
2022/03/21 10:22:07;;;;;;;;;;;;;;;13.64;22.04;96647.59;5074831;28;1028;-49
2022/03/21 10:24:41;;;;;;;;;;;;;;;13.58;22.79;96642.81;5074762;28;1039;-49
2022/03/21 10:27:25;;;;;;;;;;;;;;;13.45;22.58;96645.78;5074518;28;965;-49
2022/03/21 10:29:52;;;;;;;;;;;;;;;12.89;22.89;96641.91;5074708;28;1910;-49
2022/03/21 10:32:31;;;;;;;;;;;;;;;13.11;23.12;96649.81;5074590;28;1095;-48
2022/03/21 10:35:02;;;;;;;;;;;;;;;13.35;22.72;96655.66;5074325;28;1115;-49
2022/03/21 10:37:39;;;;;;;;;;;;;;;13.07;22.31;96649.25;5074511;28;1028;-49
2022/03/21 10:40:15;;;;;;;;;;;;;;;12.99;23.24;96643.75;5074510;28;1120;-49
2022/03/21 10:42:57;;;;;;;;;;;;;;;13.25;23.52;96630.63;5074278;28;1016;-49
2022/03/21 10:45:25;;;;;;;;;;;;;;;13.17;23.44;96642.06;5074022;28;1077;-49
2022/03/21 10:47:52;;;;;;;;;;;;;;;13.39;22.25;96632.06;5074330;28;1031;-49
2022/03/21 10:50:31;;;;;;;;;;;;;;;13.29;23.05;96629.34;5073962;28;2344;-49
2022/03/21 10:53:05;;;;;;;;;;;;;;;13.37;22.62;96634.88;5054600;28;957;-49
2022/03/21 10:55:31;;;;;;;;;;;;;;;13.33;22.46;96617.34;5054080;28;1017;-49
2022/03/21 10:57:57;;;;;;;;;;;;;;;13.06;22.88;96626.94;5054152;28;949;-48
2022/03/21 11:00:24;;;;;;;;;;;;;;;12.59;22.99;96618.66;5053848;28;1099;-48
2022/03/21 11:03:03;;;;;;;;;;;;;;;12.26;23.15;96626.06;5053961;28;1024;-48
2022/03/21 11:05:32;;;;;;;;;;;;;;;12.22;23.75;96608.56;5053858;28;1100;-49
2022/03/21 11:07:58;;;;;;;;;;;;;;;12.10;23.61;96617.66;5053900;28;1076;-49
2022/03/21 11:10:25;;;;;;;;;;;;;;;11.77;23.49;96606.19;5053832;28;1906;-49
2022/03/21 11:12:51;;;;;;;;;;;;;;;11.84;23.96;96615.41;5052658;28;999;-48
2022/03/21 11:15:17;;;;;;;;;;;;;;;11.64;23.24;96601.03;5053713;28;1040;-48
2022/03/21 11:17:44;;;;;;;;;;;;;;;11.92;24.16;96593.34;5053912;28;1060;-49
2022/03/21 11:20:12;;;;;;;;;;;;;;;12.04;23.91;96602.97;5053974;28;949;-48
2022/03/21 11:22:39;;;;;;;;;;;;;;;11.99;23.86;96605.22;5053704;28;1048;-49
2022/03/21 11:25:07;;;;;;;;;;;;;;;12.22;23.80;96603.19;5053553;28;1185;-49
2022/03/21 11:27:51;;;;;;;;;;;;;;;12.47;24.13;96590.28;5053478;28;1012;-48
2022/03/21 11:30:26;;;;;;;;;;;;;;;12.12;23.56;96588.88;5053782;28;1993;-49
2022/03/21 11:32:58;;;;;;;;;;;;;;;12.24;23.89;96595.00;5053552;28;1045;-48
2022/03/21 11:35:27;;;;;;;;;;;;;;;12.34;24.20;96581.63;5053690;28;961;-48
2022/03/21 11:37:55;;;;;;;;;;;;;;;12.49;24.26;96574.88;5053337;28;949;-54
2022/03/21 11:40:32;;;;;;;;;;;;;;;12.25;24.30;96578.75;5053337;28;1024;-48
2022/03/21 11:43:21;;;;;;;;;;;;;;;11.80;23.98;96570.22;5053082;28;1004;-48
2022/03/21 11:45:53;;;;;;;;;;;;;;;11.81;23.90;96562.06;5053032;28;1235;-48
2022/03/21 11:48:19;;;;;;;;;;;;;;;11.78;24.80;96558.81;5053369;28;1010;-48
2022/03/21 11:50:46;;;;;;;;;;;;;;;11.78;24.73;96569.53;5055717;28;2037;-48
2022/03/21 11:53:14;;;;;;;;;;;;;;;11.61;24.43;96566.50;5071941;28;1123;-51
2022/03/21 11:55:41;;;;;;;;;;;;;;;11.67;24.14;96568.63;5073531;28;945;-50
2022/03/21 11:58:23;;;;;;;;;;;;;;;11.45;24.78;96547.38;5071878;28;1060;-51
2022/03/21 12:01:06;;;;;;;;;;;;;;;11.60;25.87;96551.41;5071738;28;1610;-49
2022/03/21 12:03:33;;;;;;;;;;;;;;;11.45;24.92;96544.69;5073258;28;1051;-50
2022/03/21 12:06:18;;;;;;;;;;;;;;;11.26;25.21;96542.75;5072941;28;1027;-49
2022/03/21 12:08:45;;;;;;;;;;;;;;;10.96;25.15;96546.19;5073227;28;1894;-49
2022/03/21 12:11:31;;;;;;;;;;;;;;;11.09;25.02;96542.34;5071765;28;1167;-49
2022/03/21 12:14:16;;;;;;;;;;;;;;;11.17;25.34;96532.81;5072669;28;1775;-49
2022/03/21 12:16:42;;;;;;;;;;;;;;;10.94;24.39;96527.59;5071970;28;1601;-49
2022/03/21 12:19:09;;;;;;;;;;;;;;;11.20;25.06;96530.72;5073223;28;1028;-49
2022/03/21 12:21:35;;;;;;;;;;;;;;;11.26;24.95;96532.03;5071685;28;1020;-49
2022/03/21 12:24:14;;;;;;;;;;;;;;;11.13;25.18;96525.06;5074611;28;1059;-49
2022/03/21 12:26:47;;;;;;;;;;;;;;;11.09;25.11;96520.94;5077205;28;1063;-49
2022/03/21 12:29:31;;;;;;;;;;;;;;;11.00;24.83;96511.00;5077220;28;1987;-50
2022/03/21 12:32:16;;;;;;;;;;;;;;;11.02;25.34;96509.06;5076767;28;1024;-49
2022/03/21 12:34:44;;;;;;;;;;;;;;;10.86;24.48;96522.03;5075743;28;1101;-49
2022/03/21 12:37:24;;;;;;;;;;;;;;;10.25;24.49;96526.13;5076759;28;1028;-49
2022/03/21 12:39:53;;;;;;;;;;;;;;;10.10;25.15;96514.84;5076777;28;1029;-49
2022/03/21 12:42:21;;;;;;;;;;;;;;;10.26;25.62;96511.81;5075299;28;1055;-49
2022/03/21 12:44:47;;;;;;;;;;;;;;;10.48;25.05;96510.88;5076615;28;1020;-49
2022/03/21 12:47:17;;;;;;;;;;;;;;;10.05;24.33;96506.34;5036544;28;1059;-49
2022/03/21 12:49:53;;;;;;;;;;;;;;;10.08;25.61;96506.13;5036971;28;1886;-49
2022/03/21 12:52:26;;;;;;;;;;;;;;;10.41;25.44;96492.81;5036381;28;1179;-49
2022/03/21 12:54:53;;;;;;;;;;;;;;;10.56;25.52;96496.88;5036751;28;1906;-49
2022/03/21 12:57:19;;;;;;;;;;;;;;;10.67;25.89;96504.84;5036446;28;1019;-49
2022/03/21 12:59:45;;;;;;;;;;;;;;;10.77;25.67;96486.19;5034998;28;1056;-50
2022/03/21 13:02:24;;;;;;;;;;;;;;;10.49;24.90;96498.34;5035057;28;1096;-49
2022/03/21 13:10:34;;;;;;;;;;;;;;;10.43;25.59;96486.34;5036218;28;1910;-49
2022/03/21 13:13:02;;;;;;;;;;;;;;;10.63;26.12;96492.72;5036001;28;1008;-49
2022/03/21 13:15:29;;;;;;;;;;;;;;;10.61;26.60;96483.97;5036309;28;961;-54
2022/03/21 13:18:01;;;;;;;;;;;;;;;10.24;25.63;96486.16;5036109;28;1004;-50
2022/03/21 13:20:31;;;;;;;;;;;;;;;10.11;25.63;96476.47;5036135;28;1100;-49
2022/03/21 13:22:58;;;;;;;;;;;;;;;10.18;26.07;96479.47;5035971;28;1535;-49
2022/03/21 13:25:30;;;;;;;;;;;;;;;10.29;26.08;96474.09;5036244;28;1015;-50
2022/03/21 13:28:09;;;;;;;;;;;;;;;10.43;25.82;96482.84;5034770;28;1531;-49
2022/03/21 13:30:36;;;;;;;;;;;;;;;10.45;25.71;96486.22;5035782;28;1907;-49
2022/03/21 13:33:03;;;;;;;;;;;;;;;10.60;26.38;96473.41;5035790;28;1558;-49
2022/03/21 13:35:31;;;;;;;;;;;;;;;10.59;25.55;96485.09;5033546;28;1034;-50
2022/03/21 13:38:05;;;;;;;;;;;;;;;10.52;25.39;96480.25;5035506;28;1032;-49